sensor_id;sensor_type;location;lat;lon;timestamp;P1;durP1;ratioP1;P2;durP2;ratioP2
40150;SDS011;25866;52.420;10.640;2023-04-09T00:01:46;120.90;;;30.30;;
40150;SDS011;25866;52.420;10.640;2023-04-09T00:04:11;151.83;;;29.87;;
40150;SDS011;25866;52.420;10.640;2023-04-09T00:06:37;101.63;;;27.30;;
40150;SDS011;25866;52.420;10.640;2023-04-09T00:09:03;99.00;;;27.43;;
40150;SDS011;25866;52.420;10.640;2023-04-09T00:11:28;136.30;;;28.67;;
40150;SDS011;25866;52.420;10.640;2023-04-09T00:13:54;104.63;;;30.10;;
40150;SDS011;25866;52.420;10.640;2023-04-09T00:16:21;96.73;;;28.27;;
40150;SDS011;25866;52.420;10.640;2023-04-09T00:18:47;137.10;;;27.60;;
40150;SDS011;25866;52.420;10.640;2023-04-09T00:21:12;119.00;;;26.77;;
40150;SDS011;25866;52.420;10.640;2023-04-09T00:23:40;73.00;;;23.90;;
40150;SDS011;25866;52.420;10.640;2023-04-09T00:26:06;63.13;;;25.07;;
40150;SDS011;25866;52.420;10.640;2023-04-09T00:28:32;98.87;;;24.23;;
40150;SDS011;25866;52.420;10.640;2023-04-09T00:30:58;88.70;;;23.27;;
40150;SDS011;25866;52.420;10.640;2023-04-09T00:33:24;97.60;;;23.13;;
40150;SDS011;25866;52.420;10.640;2023-04-09T00:35:50;80.87;;;22.77;;
40150;SDS011;25866;52.420;10.640;2023-04-09T00:38:16;85.93;;;22.63;;
40150;SDS011;25866;52.420;10.640;2023-04-09T00:40:42;86.20;;;23.20;;
40150;SDS011;25866;52.420;10.640;2023-04-09T00:43:08;88.27;;;26.60;;
40150;SDS011;25866;52.420;10.640;2023-04-09T00:45:34;43.83;;;21.70;;
40150;SDS011;25866;52.420;10.640;2023-04-09T00:48:00;89.73;;;22.40;;
40150;SDS011;25866;52.420;10.640;2023-04-09T00:50:26;64.37;;;22.00;;
40150;SDS011;25866;52.420;10.640;2023-04-09T00:52:52;147.17;;;24.50;;
40150;SDS011;25866;52.420;10.640;2023-04-09T00:55:17;46.83;;;21.57;;
40150;SDS011;25866;52.420;10.640;2023-04-09T00:57:45;36.23;;;20.80;;
40150;SDS011;25866;52.420;10.640;2023-04-09T01:00:11;71.67;;;22.07;;
40150;SDS011;25866;52.420;10.640;2023-04-09T01:02:37;66.53;;;22.20;;
40150;SDS011;25866;52.420;10.640;2023-04-09T01:05:03;77.07;;;22.37;;
40150;SDS011;25866;52.420;10.640;2023-04-09T01:10:31;58.40;;;21.30;;
40150;SDS011;25866;52.420;10.640;2023-04-09T01:15:33;135.50;;;21.83;;
40150;SDS011;25866;52.420;10.640;2023-04-09T01:18:05;41.03;;;18.87;;
40150;SDS011;25866;52.420;10.640;2023-04-09T01:20:44;64.27;;;20.53;;
40150;SDS011;25866;52.420;10.640;2023-04-09T01:29:02;48.03;;;19.20;;
40150;SDS011;25866;52.420;10.640;2023-04-09T01:31:30;79.37;;;20.03;;
40150;SDS011;25866;52.420;10.640;2023-04-09T01:33:59;46.57;;;17.53;;
40150;SDS011;25866;52.420;10.640;2023-04-09T01:36:25;82.80;;;18.77;;
40150;SDS011;25866;52.420;10.640;2023-04-09T01:38:54;60.07;;;18.93;;
40150;SDS011;25866;52.420;10.640;2023-04-09T01:41:20;146.70;;;18.50;;
40150;SDS011;25866;52.420;10.640;2023-04-09T01:43:48;44.63;;;16.90;;
40150;SDS011;25866;52.420;10.640;2023-04-09T01:46:15;60.43;;;17.43;;
40150;SDS011;25866;52.420;10.640;2023-04-09T01:48:42;70.60;;;17.43;;
40150;SDS011;25866;52.420;10.640;2023-04-09T01:51:09;26.13;;;15.57;;
40150;SDS011;25866;52.420;10.640;2023-04-09T01:53:38;124.37;;;18.30;;
40150;SDS011;25866;52.420;10.640;2023-04-09T01:56:04;39.23;;;15.40;;
40150;SDS011;25866;52.420;10.640;2023-04-09T01:58:30;90.53;;;16.17;;
40150;SDS011;25866;52.420;10.640;2023-04-09T02:01:21;43.17;;;16.53;;
40150;SDS011;25866;52.420;10.640;2023-04-09T02:03:53;27.33;;;15.53;;
40150;SDS011;25866;52.420;10.640;2023-04-09T02:08:52;79.07;;;16.73;;
40150;SDS011;25866;52.420;10.640;2023-04-09T02:11:18;47.00;;;16.70;;
40150;SDS011;25866;52.420;10.640;2023-04-09T02:13:47;121.33;;;18.10;;
40150;SDS011;25866;52.420;10.640;2023-04-09T02:16:16;65.77;;;17.37;;
40150;SDS011;25866;52.420;10.640;2023-04-09T02:18:43;47.10;;;16.47;;
40150;SDS011;25866;52.420;10.640;2023-04-09T02:21:09;164.63;;;18.60;;
40150;SDS011;25866;52.420;10.640;2023-04-09T02:23:35;35.50;;;16.47;;
40150;SDS011;25866;52.420;10.640;2023-04-09T02:26:01;80.20;;;17.83;;
40150;SDS011;25866;52.420;10.640;2023-04-09T02:28:26;37.77;;;15.47;;
40150;SDS011;25866;52.420;10.640;2023-04-09T02:30:52;72.60;;;16.80;;
40150;SDS011;25866;52.420;10.640;2023-04-09T02:33:18;126.10;;;16.77;;
40150;SDS011;25866;52.420;10.640;2023-04-09T02:35:43;149.63;;;16.57;;
40150;SDS011;25866;52.420;10.640;2023-04-09T02:38:09;66.87;;;14.57;;
40150;SDS011;25866;52.420;10.640;2023-04-09T02:40:38;86.00;;;14.97;;
40150;SDS011;25866;52.420;10.640;2023-04-09T02:43:05;39.43;;;14.57;;
40150;SDS011;25866;52.420;10.640;2023-04-09T02:45:31;106.03;;;15.07;;
40150;SDS011;25866;52.420;10.640;2023-04-09T02:47:57;101.67;;;15.23;;
40150;SDS011;25866;52.420;10.640;2023-04-09T02:50:22;93.10;;;15.93;;
40150;SDS011;25866;52.420;10.640;2023-04-09T02:52:48;134.43;;;19.27;;
40150;SDS011;25866;52.420;10.640;2023-04-09T02:55:14;47.37;;;16.47;;
40150;SDS011;25866;52.420;10.640;2023-04-09T02:57:40;39.03;;;15.17;;
40150;SDS011;25866;52.420;10.640;2023-04-09T03:00:06;57.30;;;16.33;;
40150;SDS011;25866;52.420;10.640;2023-04-09T03:02:32;62.93;;;15.90;;
40150;SDS011;25866;52.420;10.640;2023-04-09T03:04:58;116.37;;;15.87;;
40150;SDS011;25866;52.420;10.640;2023-04-09T03:07:24;74.03;;;15.93;;
40150;SDS011;25866;52.420;10.640;2023-04-09T03:09:49;115.27;;;16.40;;
40150;SDS011;25866;52.420;10.640;2023-04-09T03:12:15;83.23;;;15.87;;
40150;SDS011;25866;52.420;10.640;2023-04-09T03:14:41;49.87;;;16.33;;
40150;SDS011;25866;52.420;10.640;2023-04-09T03:17:07;42.13;;;14.83;;
40150;SDS011;25866;52.420;10.640;2023-04-09T03:19:32;62.50;;;14.70;;
40150;SDS011;25866;52.420;10.640;2023-04-09T03:21:58;86.70;;;14.93;;
40150;SDS011;25866;52.420;10.640;2023-04-09T03:24:24;56.60;;;14.40;;
40150;SDS011;25866;52.420;10.640;2023-04-09T03:26:49;104.27;;;15.13;;
40150;SDS011;25866;52.420;10.640;2023-04-09T03:29:15;57.93;;;15.20;;
40150;SDS011;25866;52.420;10.640;2023-04-09T03:31:41;67.40;;;14.23;;
40150;SDS011;25866;52.420;10.640;2023-04-09T03:34:06;40.30;;;14.77;;
40150;SDS011;25866;52.420;10.640;2023-04-09T03:36:32;49.30;;;15.00;;
40150;SDS011;25866;52.420;10.640;2023-04-09T03:38:58;43.97;;;16.07;;
40150;SDS011;25866;52.420;10.640;2023-04-09T03:41:24;41.10;;;15.50;;
40150;SDS011;25866;52.420;10.640;2023-04-09T03:43:50;58.97;;;16.03;;
40150;SDS011;25866;52.420;10.640;2023-04-09T03:46:16;83.37;;;16.57;;
40150;SDS011;25866;52.420;10.640;2023-04-09T03:48:42;75.33;;;16.40;;
40150;SDS011;25866;52.420;10.640;2023-04-09T03:51:12;39.87;;;15.93;;
40150;SDS011;25866;52.420;10.640;2023-04-09T03:53:41;37.40;;;15.63;;
40150;SDS011;25866;52.420;10.640;2023-04-09T03:56:07;37.00;;;16.53;;
40150;SDS011;25866;52.420;10.640;2023-04-09T03:58:34;49.90;;;17.00;;
40150;SDS011;25866;52.420;10.640;2023-04-09T04:01:00;41.83;;;15.53;;
40150;SDS011;25866;52.420;10.640;2023-04-09T04:03:26;24.70;;;14.97;;
40150;SDS011;25866;52.420;10.640;2023-04-09T04:05:52;33.33;;;14.70;;
40150;SDS011;25866;52.420;10.640;2023-04-09T04:08:17;26.27;;;14.63;;
40150;SDS011;25866;52.420;10.640;2023-04-09T04:10:43;27.77;;;15.63;;
40150;SDS011;25866;52.420;10.640;2023-04-09T04:13:09;21.73;;;14.37;;
40150;SDS011;25866;52.420;10.640;2023-04-09T04:15:38;25.37;;;15.30;;
40150;SDS011;25866;52.420;10.640;2023-04-09T04:18:05;25.53;;;15.43;;
40150;SDS011;25866;52.420;10.640;2023-04-09T04:20:34;29.10;;;14.73;;
40150;SDS011;25866;52.420;10.640;2023-04-09T04:23:01;29.87;;;15.10;;
40150;SDS011;25866;52.420;10.640;2023-04-09T04:25:27;22.33;;;14.67;;
40150;SDS011;25866;52.420;10.640;2023-04-09T04:27:53;22.67;;;14.67;;
40150;SDS011;25866;52.420;10.640;2023-04-09T04:30:19;23.40;;;15.40;;
40150;SDS011;25866;52.420;10.640;2023-04-09T04:32:45;23.73;;;14.87;;
40150;SDS011;25866;52.420;10.640;2023-04-09T04:35:11;26.57;;;15.53;;
40150;SDS011;25866;52.420;10.640;2023-04-09T04:37:37;23.80;;;14.53;;
40150;SDS011;25866;52.420;10.640;2023-04-09T04:40:04;21.50;;;13.80;;
40150;SDS011;25866;52.420;10.640;2023-04-09T04:42:31;23.53;;;14.60;;
40150;SDS011;25866;52.420;10.640;2023-04-09T04:44:57;26.33;;;15.07;;
40150;SDS011;25866;52.420;10.640;2023-04-09T04:47:23;23.87;;;14.80;;
40150;SDS011;25866;52.420;10.640;2023-04-09T04:49:48;25.33;;;15.03;;
40150;SDS011;25866;52.420;10.640;2023-04-09T04:52:14;27.60;;;15.27;;
40150;SDS011;25866;52.420;10.640;2023-04-09T04:54:40;25.33;;;13.83;;
40150;SDS011;25866;52.420;10.640;2023-04-09T04:57:05;24.60;;;14.70;;
40150;SDS011;25866;52.420;10.640;2023-04-09T04:59:31;25.53;;;15.37;;
40150;SDS011;25866;52.420;10.640;2023-04-09T05:01:57;22.10;;;14.53;;
40150;SDS011;25866;52.420;10.640;2023-04-09T05:04:23;26.10;;;15.50;;
40150;SDS011;25866;52.420;10.640;2023-04-09T05:06:48;28.73;;;17.07;;
40150;SDS011;25866;52.420;10.640;2023-04-09T05:09:14;27.07;;;16.93;;
40150;SDS011;25866;52.420;10.640;2023-04-09T05:11:40;24.73;;;15.77;;
40150;SDS011;25866;52.420;10.640;2023-04-09T05:14:06;30.20;;;17.47;;
40150;SDS011;25866;52.420;10.640;2023-04-09T05:16:31;31.07;;;18.50;;
40150;SDS011;25866;52.420;10.640;2023-04-09T05:18:57;28.87;;;18.30;;
40150;SDS011;25866;52.420;10.640;2023-04-09T05:21:23;29.17;;;17.83;;
40150;SDS011;25866;52.420;10.640;2023-04-09T05:23:49;29.43;;;17.90;;
40150;SDS011;25866;52.420;10.640;2023-04-09T05:26:14;29.77;;;17.77;;
40150;SDS011;25866;52.420;10.640;2023-04-09T05:28:40;33.57;;;18.47;;
40150;SDS011;25866;52.420;10.640;2023-04-09T05:31:06;34.90;;;19.20;;
40150;SDS011;25866;52.420;10.640;2023-04-09T05:33:37;30.23;;;18.73;;
40150;SDS011;25866;52.420;10.640;2023-04-09T05:36:03;30.53;;;18.37;;
40150;SDS011;25866;52.420;10.640;2023-04-09T05:38:29;34.13;;;18.70;;
40150;SDS011;25866;52.420;10.640;2023-04-09T05:40:55;33.60;;;19.10;;
40150;SDS011;25866;52.420;10.640;2023-04-09T05:43:21;34.60;;;17.63;;
40150;SDS011;25866;52.420;10.640;2023-04-09T05:45:47;31.70;;;17.27;;
40150;SDS011;25866;52.420;10.640;2023-04-09T05:48:12;33.63;;;19.40;;
40150;SDS011;25866;52.420;10.640;2023-04-09T05:50:38;32.73;;;18.47;;
40150;SDS011;25866;52.420;10.640;2023-04-09T05:53:04;34.20;;;18.43;;
40150;SDS011;25866;52.420;10.640;2023-04-09T05:55:30;33.80;;;19.23;;
40150;SDS011;25866;52.420;10.640;2023-04-09T05:57:56;31.70;;;18.13;;
40150;SDS011;25866;52.420;10.640;2023-04-09T06:00:22;33.40;;;18.97;;
40150;SDS011;25866;52.420;10.640;2023-04-09T06:02:48;34.33;;;18.50;;
40150;SDS011;25866;52.420;10.640;2023-04-09T06:05:14;35.87;;;18.70;;
40150;SDS011;25866;52.420;10.640;2023-04-09T06:07:40;33.60;;;18.73;;
40150;SDS011;25866;52.420;10.640;2023-04-09T06:10:06;36.37;;;18.90;;
40150;SDS011;25866;52.420;10.640;2023-04-09T06:12:35;34.03;;;18.03;;
40150;SDS011;25866;52.420;10.640;2023-04-09T06:15:01;30.60;;;17.90;;
40150;SDS011;25866;52.420;10.640;2023-04-09T06:17:27;34.53;;;20.03;;
40150;SDS011;25866;52.420;10.640;2023-04-09T06:19:53;41.67;;;20.03;;
40150;SDS011;25866;52.420;10.640;2023-04-09T06:22:19;35.20;;;19.63;;
40150;SDS011;25866;52.420;10.640;2023-04-09T06:24:45;34.73;;;18.97;;
40150;SDS011;25866;52.420;10.640;2023-04-09T06:27:11;36.10;;;19.20;;
40150;SDS011;25866;52.420;10.640;2023-04-09T06:29:36;35.27;;;19.50;;
40150;SDS011;25866;52.420;10.640;2023-04-09T06:32:02;36.30;;;19.60;;
40150;SDS011;25866;52.420;10.640;2023-04-09T06:34:28;34.53;;;19.87;;
40150;SDS011;25866;52.420;10.640;2023-04-09T06:36:53;35.17;;;19.07;;
40150;SDS011;25866;52.420;10.640;2023-04-09T06:39:20;35.00;;;18.90;;
40150;SDS011;25866;52.420;10.640;2023-04-09T06:41:46;35.80;;;18.97;;
40150;SDS011;25866;52.420;10.640;2023-04-09T06:44:11;33.53;;;18.50;;
40150;SDS011;25866;52.420;10.640;2023-04-09T06:46:37;34.60;;;18.40;;
40150;SDS011;25866;52.420;10.640;2023-04-09T06:49:03;38.67;;;20.03;;
40150;SDS011;25866;52.420;10.640;2023-04-09T06:51:29;38.27;;;21.40;;
40150;SDS011;25866;52.420;10.640;2023-04-09T06:53:56;39.50;;;21.23;;
40150;SDS011;25866;52.420;10.640;2023-04-09T06:56:21;36.87;;;21.07;;
40150;SDS011;25866;52.420;10.640;2023-04-09T06:58:47;36.77;;;19.57;;
40150;SDS011;25866;52.420;10.640;2023-04-09T07:01:13;38.73;;;19.40;;
40150;SDS011;25866;52.420;10.640;2023-04-09T07:03:39;32.33;;;18.20;;
40150;SDS011;25866;52.420;10.640;2023-04-09T07:06:04;35.00;;;18.93;;
40150;SDS011;25866;52.420;10.640;2023-04-09T07:08:30;38.03;;;19.40;;
40150;SDS011;25866;52.420;10.640;2023-04-09T07:10:56;35.83;;;19.73;;
40150;SDS011;25866;52.420;10.640;2023-04-09T07:13:21;39.33;;;19.90;;
40150;SDS011;25866;52.420;10.640;2023-04-09T07:15:47;34.57;;;19.73;;
40150;SDS011;25866;52.420;10.640;2023-04-09T07:18:13;35.17;;;20.17;;
40150;SDS011;25866;52.420;10.640;2023-04-09T07:20:38;35.53;;;20.80;;
40150;SDS011;25866;52.420;10.640;2023-04-09T07:23:04;36.03;;;20.43;;
40150;SDS011;25866;52.420;10.640;2023-04-09T07:25:30;32.83;;;19.70;;
40150;SDS011;25866;52.420;10.640;2023-04-09T07:27:56;41.03;;;20.03;;
40150;SDS011;25866;52.420;10.640;2023-04-09T07:30:22;42.30;;;21.37;;
40150;SDS011;25866;52.420;10.640;2023-04-09T07:32:48;39.50;;;20.27;;
40150;SDS011;25866;52.420;10.640;2023-04-09T07:35:13;35.87;;;20.53;;
40150;SDS011;25866;52.420;10.640;2023-04-09T07:37:39;38.90;;;20.53;;
40150;SDS011;25866;52.420;10.640;2023-04-09T07:40:05;39.50;;;20.80;;
40150;SDS011;25866;52.420;10.640;2023-04-09T07:42:32;35.10;;;20.17;;
40150;SDS011;25866;52.420;10.640;2023-04-09T07:44:58;34.53;;;19.77;;
40150;SDS011;25866;52.420;10.640;2023-04-09T07:47:23;38.60;;;20.33;;
40150;SDS011;25866;52.420;10.640;2023-04-09T07:49:49;40.00;;;20.30;;
40150;SDS011;25866;52.420;10.640;2023-04-09T07:52:15;35.97;;;20.10;;
40150;SDS011;25866;52.420;10.640;2023-04-09T07:54:41;36.73;;;20.23;;
40150;SDS011;25866;52.420;10.640;2023-04-09T07:57:06;37.63;;;20.50;;
40150;SDS011;25866;52.420;10.640;2023-04-09T07:59:33;35.43;;;20.00;;
40150;SDS011;25866;52.420;10.640;2023-04-09T08:01:59;36.57;;;20.77;;
40150;SDS011;25866;52.420;10.640;2023-04-09T08:04:24;42.77;;;21.43;;
40150;SDS011;25866;52.420;10.640;2023-04-09T08:06:51;39.07;;;21.90;;
40150;SDS011;25866;52.420;10.640;2023-04-09T08:09:17;35.87;;;20.40;;
40150;SDS011;25866;52.420;10.640;2023-04-09T08:11:44;39.03;;;21.83;;
40150;SDS011;25866;52.420;10.640;2023-04-09T08:14:10;35.90;;;20.87;;
40150;SDS011;25866;52.420;10.640;2023-04-09T08:16:39;39.90;;;21.70;;
40150;SDS011;25866;52.420;10.640;2023-04-09T08:19:09;36.73;;;21.00;;
40150;SDS011;25866;52.420;10.640;2023-04-09T08:21:39;36.43;;;20.83;;
40150;SDS011;25866;52.420;10.640;2023-04-09T08:24:08;36.20;;;20.87;;
40150;SDS011;25866;52.420;10.640;2023-04-09T08:26:36;35.63;;;20.57;;
40150;SDS011;25866;52.420;10.640;2023-04-09T08:29:02;41.40;;;22.17;;
40150;SDS011;25866;52.420;10.640;2023-04-09T08:31:28;37.00;;;21.87;;
40150;SDS011;25866;52.420;10.640;2023-04-09T08:33:54;38.53;;;20.17;;
40150;SDS011;25866;52.420;10.640;2023-04-09T08:36:20;39.03;;;20.57;;
40150;SDS011;25866;52.420;10.640;2023-04-09T08:38:46;34.53;;;20.90;;
40150;SDS011;25866;52.420;10.640;2023-04-09T08:41:19;34.50;;;19.97;;
40150;SDS011;25866;52.420;10.640;2023-04-09T08:43:49;34.47;;;20.87;;
40150;SDS011;25866;52.420;10.640;2023-04-09T08:46:17;34.47;;;20.90;;
40150;SDS011;25866;52.420;10.640;2023-04-09T08:48:43;38.00;;;20.80;;
40150;SDS011;25866;52.420;10.640;2023-04-09T08:51:17;35.07;;;19.60;;
40150;SDS011;25866;52.420;10.640;2023-04-09T08:53:45;38.97;;;22.40;;
40150;SDS011;25866;52.420;10.640;2023-04-09T08:56:14;50.30;;;25.30;;
40150;SDS011;25866;52.420;10.640;2023-04-09T08:58:43;46.43;;;25.37;;
40150;SDS011;25866;52.420;10.640;2023-04-09T09:01:22;44.50;;;22.17;;
40150;SDS011;25866;52.420;10.640;2023-04-09T09:03:56;37.73;;;21.00;;
40150;SDS011;25866;52.420;10.640;2023-04-09T09:06:28;40.77;;;21.37;;
40150;SDS011;25866;52.420;10.640;2023-04-09T09:09:00;41.97;;;21.13;;
40150;SDS011;25866;52.420;10.640;2023-04-09T09:11:47;38.47;;;21.20;;
40150;SDS011;25866;52.420;10.640;2023-04-09T09:14:17;36.20;;;20.27;;
40150;SDS011;25866;52.420;10.640;2023-04-09T09:21:54;35.97;;;19.97;;
40150;SDS011;25866;52.420;10.640;2023-04-09T09:24:21;35.60;;;20.93;;
40150;SDS011;25866;52.420;10.640;2023-04-09T09:26:47;39.23;;;21.00;;
40150;SDS011;25866;52.420;10.640;2023-04-09T09:29:13;36.73;;;21.33;;
40150;SDS011;25866;52.420;10.640;2023-04-09T09:31:49;36.83;;;21.17;;
40150;SDS011;25866;52.420;10.640;2023-04-09T09:34:20;33.23;;;20.23;;
40150;SDS011;25866;52.420;10.640;2023-04-09T09:36:47;35.20;;;19.77;;
40150;SDS011;25866;52.420;10.640;2023-04-09T09:39:13;31.13;;;19.07;;
40150;SDS011;25866;52.420;10.640;2023-04-09T09:41:41;33.23;;;20.37;;
40150;SDS011;25866;52.420;10.640;2023-04-09T09:44:08;34.03;;;20.33;;
40150;SDS011;25866;52.420;10.640;2023-04-09T09:46:36;33.87;;;20.10;;
40150;SDS011;25866;52.420;10.640;2023-04-09T09:49:06;33.83;;;20.20;;
40150;SDS011;25866;52.420;10.640;2023-04-09T09:51:34;32.17;;;19.63;;
40150;SDS011;25866;52.420;10.640;2023-04-09T09:54:02;33.17;;;19.70;;
40150;SDS011;25866;52.420;10.640;2023-04-09T09:56:33;30.70;;;18.47;;
40150;SDS011;25866;52.420;10.640;2023-04-09T09:59:01;33.33;;;20.13;;
40150;SDS011;25866;52.420;10.640;2023-04-09T10:01:36;32.77;;;19.20;;
40150;SDS011;25866;52.420;10.640;2023-04-09T10:04:03;32.67;;;19.80;;
40150;SDS011;25866;52.420;10.640;2023-04-09T10:06:31;30.67;;;19.10;;
40150;SDS011;25866;52.420;10.640;2023-04-09T10:08:59;33.33;;;20.17;;
40150;SDS011;25866;52.420;10.640;2023-04-09T10:11:29;30.30;;;19.40;;
40150;SDS011;25866;52.420;10.640;2023-04-09T10:13:57;31.47;;;19.33;;
40150;SDS011;25866;52.420;10.640;2023-04-09T10:16:23;32.30;;;19.97;;
40150;SDS011;25866;52.420;10.640;2023-04-09T10:18:51;33.33;;;19.97;;
40150;SDS011;25866;52.420;10.640;2023-04-09T10:24:11;30.87;;;18.70;;
40150;SDS011;25866;52.420;10.640;2023-04-09T10:26:41;27.27;;;18.30;;
40150;SDS011;25866;52.420;10.640;2023-04-09T10:29:11;31.47;;;19.47;;
40150;SDS011;25866;52.420;10.640;2023-04-09T10:32:12;33.10;;;20.07;;
40150;SDS011;25866;52.420;10.640;2023-04-09T10:34:35;32.83;;;20.33;;
40150;SDS011;25866;52.420;10.640;2023-04-09T10:37:06;31.53;;;18.87;;
40150;SDS011;25866;52.420;10.640;2023-04-09T10:39:36;30.70;;;18.63;;
40150;SDS011;25866;52.420;10.640;2023-04-09T10:42:20;30.43;;;19.60;;
40150;SDS011;25866;52.420;10.640;2023-04-09T10:45:07;32.70;;;19.73;;
40150;SDS011;25866;52.420;10.640;2023-04-09T10:47:35;32.07;;;20.70;;
40150;SDS011;25866;52.420;10.640;2023-04-09T10:52:50;30.43;;;18.37;;
40150;SDS011;25866;52.420;10.640;2023-04-09T10:55:32;30.83;;;20.13;;
40150;SDS011;25866;52.420;10.640;2023-04-09T10:58:07;32.47;;;19.40;;
40150;SDS011;25866;52.420;10.640;2023-04-09T11:00:44;31.07;;;20.10;;
40150;SDS011;25866;52.420;10.640;2023-04-09T11:05:46;28.87;;;20.03;;
40150;SDS011;25866;52.420;10.640;2023-04-09T11:08:16;29.33;;;19.30;;
40150;SDS011;25866;52.420;10.640;2023-04-09T11:10:42;32.17;;;20.20;;
40150;SDS011;25866;52.420;10.640;2023-04-09T11:13:13;30.13;;;18.45;;
40150;SDS011;25866;52.420;10.640;2023-04-09T11:15:41;29.35;;;18.50;;
40150;SDS011;25866;52.420;10.640;2023-04-09T11:18:07;26.52;;;17.92;;
40150;SDS011;25866;52.420;10.640;2023-04-09T11:20:37;27.60;;;19.13;;
40150;SDS011;25866;52.420;10.640;2023-04-09T11:23:04;26.40;;;18.25;;
40150;SDS011;25866;52.420;10.640;2023-04-09T11:25:30;24.92;;;17.42;;
40150;SDS011;25866;52.420;10.640;2023-04-09T11:27:57;29.10;;;19.13;;
40150;SDS011;25866;52.420;10.640;2023-04-09T11:30:24;27.55;;;17.80;;
40150;SDS011;25866;52.420;10.640;2023-04-09T11:32:50;25.75;;;17.83;;
40150;SDS011;25866;52.420;10.640;2023-04-09T11:35:20;27.58;;;18.05;;
40150;SDS011;25866;52.420;10.640;2023-04-09T11:37:47;28.05;;;17.90;;
40150;SDS011;25866;52.420;10.640;2023-04-09T11:40:14;28.45;;;18.75;;
40150;SDS011;25866;52.420;10.640;2023-04-09T11:42:42;26.20;;;18.17;;
40150;SDS011;25866;52.420;10.640;2023-04-09T11:45:08;29.35;;;19.05;;
40150;SDS011;25866;52.420;10.640;2023-04-09T11:47:35;28.67;;;19.35;;
40150;SDS011;25866;52.420;10.640;2023-04-09T11:50:04;26.50;;;18.48;;
40150;SDS011;25866;52.420;10.640;2023-04-09T11:52:33;29.98;;;18.67;;
40150;SDS011;25866;52.420;10.640;2023-04-09T11:55:06;29.65;;;19.05;;
40150;SDS011;25866;52.420;10.640;2023-04-09T11:57:39;27.20;;;18.27;;
40150;SDS011;25866;52.420;10.640;2023-04-09T12:00:10;25.60;;;17.73;;
40150;SDS011;25866;52.420;10.640;2023-04-09T12:02:45;27.50;;;18.23;;
40150;SDS011;25866;52.420;10.640;2023-04-09T12:05:22;30.42;;;19.40;;
40150;SDS011;25866;52.420;10.640;2023-04-09T12:07:49;27.17;;;17.65;;
40150;SDS011;25866;52.420;10.640;2023-04-09T12:10:16;27.48;;;18.65;;
40150;SDS011;25866;52.420;10.640;2023-04-09T12:15:17;27.98;;;18.80;;
40150;SDS011;25866;52.420;10.640;2023-04-09T12:17:48;25.77;;;17.70;;
40150;SDS011;25866;52.420;10.640;2023-04-09T12:20:28;25.42;;;17.95;;
40150;SDS011;25866;52.420;10.640;2023-04-09T12:22:55;29.83;;;19.52;;
40150;SDS011;25866;52.420;10.640;2023-04-09T12:25:22;26.83;;;18.77;;
40150;SDS011;25866;52.420;10.640;2023-04-09T12:27:48;27.75;;;18.85;;
40150;SDS011;25866;52.420;10.640;2023-04-09T12:30:13;25.65;;;18.00;;
40150;SDS011;25866;52.420;10.640;2023-04-09T12:32:39;28.10;;;19.00;;
40150;SDS011;25866;52.420;10.640;2023-04-09T12:35:07;29.33;;;19.27;;
40150;SDS011;25866;52.420;10.640;2023-04-09T12:37:32;26.35;;;18.27;;
40150;SDS011;25866;52.420;10.640;2023-04-09T12:39:58;28.48;;;19.65;;
40150;SDS011;25866;52.420;10.640;2023-04-09T12:42:24;26.30;;;17.92;;
40150;SDS011;25866;52.420;10.640;2023-04-09T12:44:49;25.85;;;18.05;;
40150;SDS011;25866;52.420;10.640;2023-04-09T12:47:15;26.08;;;17.67;;
40150;SDS011;25866;52.420;10.640;2023-04-09T12:49:42;27.40;;;19.23;;
40150;SDS011;25866;52.420;10.640;2023-04-09T12:52:10;25.38;;;18.00;;
40150;SDS011;25866;52.420;10.640;2023-04-09T12:54:38;28.33;;;19.27;;
40150;SDS011;25866;52.420;10.640;2023-04-09T12:57:04;27.63;;;19.42;;
40150;SDS011;25866;52.420;10.640;2023-04-09T12:59:30;26.23;;;18.08;;
40150;SDS011;25866;52.420;10.640;2023-04-09T13:01:56;24.92;;;17.88;;
40150;SDS011;25866;52.420;10.640;2023-04-09T13:04:22;29.08;;;19.50;;
40150;SDS011;25866;52.420;10.640;2023-04-09T13:06:47;30.50;;;19.08;;
40150;SDS011;25866;52.420;10.640;2023-04-09T13:09:14;27.15;;;18.88;;
40150;SDS011;25866;52.420;10.640;2023-04-09T13:11:39;26.13;;;18.08;;
40150;SDS011;25866;52.420;10.640;2023-04-09T13:14:05;24.77;;;17.55;;
40150;SDS011;25866;52.420;10.640;2023-04-09T13:16:31;24.13;;;18.00;;
40150;SDS011;25866;52.420;10.640;2023-04-09T13:18:58;26.45;;;18.58;;
40150;SDS011;25866;52.420;10.640;2023-04-09T13:21:23;26.02;;;17.58;;
40150;SDS011;25866;52.420;10.640;2023-04-09T13:23:50;27.02;;;18.73;;
40150;SDS011;25866;52.420;10.640;2023-04-09T13:26:16;26.55;;;18.80;;
40150;SDS011;25866;52.420;10.640;2023-04-09T13:28:41;24.75;;;18.50;;
40150;SDS011;25866;52.420;10.640;2023-04-09T13:31:08;26.10;;;17.83;;
40150;SDS011;25866;52.420;10.640;2023-04-09T13:33:34;25.83;;;18.23;;
40150;SDS011;25866;52.420;10.640;2023-04-09T13:35:59;25.38;;;18.17;;
40150;SDS011;25866;52.420;10.640;2023-04-09T13:38:25;25.73;;;17.90;;
40150;SDS011;25866;52.420;10.640;2023-04-09T13:40:51;24.15;;;17.60;;
40150;SDS011;25866;52.420;10.640;2023-04-09T13:43:16;26.05;;;19.23;;
40150;SDS011;25866;52.420;10.640;2023-04-09T13:45:42;25.48;;;18.90;;
40150;SDS011;25866;52.420;10.640;2023-04-09T13:48:08;26.52;;;17.23;;
40150;SDS011;25866;52.420;10.640;2023-04-09T13:50:34;25.58;;;18.42;;
40150;SDS011;25866;52.420;10.640;2023-04-09T13:52:59;25.02;;;17.50;;
40150;SDS011;25866;52.420;10.640;2023-04-09T13:55:29;25.25;;;17.48;;
40150;SDS011;25866;52.420;10.640;2023-04-09T13:57:55;26.33;;;18.42;;
40150;SDS011;25866;52.420;10.640;2023-04-09T14:00:20;26.85;;;18.95;;
40150;SDS011;25866;52.420;10.640;2023-04-09T14:02:46;24.30;;;17.50;;
40150;SDS011;25866;52.420;10.640;2023-04-09T14:05:12;25.48;;;17.63;;
40150;SDS011;25866;52.420;10.640;2023-04-09T14:07:37;25.42;;;18.17;;
40150;SDS011;25866;52.420;10.640;2023-04-09T14:10:03;27.75;;;18.52;;
40150;SDS011;25866;52.420;10.640;2023-04-09T14:12:29;27.52;;;18.35;;
40150;SDS011;25866;52.420;10.640;2023-04-09T14:14:55;24.70;;;18.20;;
40150;SDS011;25866;52.420;10.640;2023-04-09T14:17:20;23.35;;;17.08;;
40150;SDS011;25866;52.420;10.640;2023-04-09T14:19:46;22.88;;;16.88;;
40150;SDS011;25866;52.420;10.640;2023-04-09T14:22:12;26.27;;;17.52;;
40150;SDS011;25866;52.420;10.640;2023-04-09T14:24:38;23.70;;;17.45;;
40150;SDS011;25866;52.420;10.640;2023-04-09T14:27:06;24.08;;;16.92;;
40150;SDS011;25866;52.420;10.640;2023-04-09T14:29:32;24.40;;;17.90;;
40150;SDS011;25866;52.420;10.640;2023-04-09T14:31:58;26.88;;;17.15;;
40150;SDS011;25866;52.420;10.640;2023-04-09T14:34:25;22.90;;;17.17;;
40150;SDS011;25866;52.420;10.640;2023-04-09T14:36:51;26.17;;;18.63;;
40150;SDS011;25866;52.420;10.640;2023-04-09T14:39:17;24.95;;;17.55;;